KUCY/UCY METAR and TAF weather

Enter ICAO airport designator
Station Type Date Time Source
KUCY METAR 2024/04/18 06:35 UTC NOAA

KUCY 180635Z AUTO 00000KT 9SM CLR 17/17 A2998 RMK A01


Station Type Date Time Source
KUCY Decoded METAR 2024/04/18 06:35 UTC NOAA

Station name not available
Apr 18, 2024 - 02:35 AM EDT / 2024.04.18 0635 UTC
Wind: Calm:0
Visibility: 9 mile(s):0
Sky conditions: clear
Temperature: 62 F (17 C)
Dew Point: 62 F (17 C)
Relative Humidity: 100%
Pressure (altimeter): 29.98 in. Hg (1015 hPa)
ob: KUCY 180635Z AUTO 00000KT 9SM CLR 17/17 A2998 RMK A01
cycle: 6

Station Type Date Time Source
KUCY TAF UTC NOAA

Error!

Example: see airport list